Accueil
METAR-TAF:

METAR-TAF

Aéroports :

Aéroport de Friedrichshafen

Friedrichshafen, Allemagne

latitude: 47-40N, longitude: 009-31E, altitude: 416 m

Observation

Le bulletin a été fait il y a 40 minutes, à 06:50 UTC
Vent 5 kt de nord-est
Température 0°C
Humidité 86%
Pression 1033 hPa
Visibilité 10 km ou plus
pas de nuages en-dessous de 1500 mètres et pas de cumulonimbus.

METAR: EDNY 200650Z 05005KT CAVOK 00/M02 Q1033

Heure: 08:30 (07:30 UTC)

Prévision

Le bulletin a été fait il y a 2 heures et 30 minutes, à 05:00 UTC
Prévision valable du 20 à 06 UTC au 21 à 06 UTC
Vent 5 kt de nord-est
Visibilité 10 km ou plus
pas de nuages en-dessous de 1500 mètres et pas de cumulonimbus.
Evoluant progressivement
du 20 à 09 UTC au 20 à 11 UTC
Vent 10 kt de est/nord-est
Evoluant progressivement
du 20 à 18 UTC au 20 à 20 UTC
Vent 5 kt de nord/nord-est

TAF: EDNY 200500Z 2006/2106 04005KT CAVOK BECMG 2009/2011 06010KT BECMG 2018/2020 03005KT

Observations et prévisions météorologiques de plus de 4000 aéroports (messages METAR et TAF).

Les stations disponibles sont représentées par des disques jaunes et rouges sur la carte.

Passer la souris dessus pour voir le nom de la station.

Cliquer dessus pour voir les observations et prévisions météorologiques.

Pour changer de carte: cliquez sur les boutons verts avec une croix noire pour zoomer, sur le bouton vert avec un tiret pour effectuer un zoom arrière, ou sur les flèches vertes pour les cartes adjacentes.


METAR-TAF: